Time;durP1;ratioP1;P1;durP2;ratioP2;P2;SDS_P1;SDS_P2;PMS_P1;PMS_P2;Temp;Humidity;BMP_temperature;BMP_pressure;BME280_temperature;BME280_humidity;BME280_pressure;Samples;Min_cycle;Max_cycle;Signal;HPM_P1;HPM_P2
2023/01/29 00:02:23;;;;;;;18.45;10.00;;;;;;;;;;4989320;28;20065;-66
2023/01/29 00:04:48;;;;;;;19.38;10.73;;;;;;;;;;4990100;28;20034;-66
2023/01/29 00:07:14;;;;;;;19.52;10.15;;;;;;;;;;4989092;28;20365;-66
2023/01/29 00:09:39;;;;;;;18.40;10.13;;;;;;;;;;4989504;28;20033;-66
2023/01/29 00:12:07;;;;;;;20.25;10.30;;;;;;;;;;4989764;28;20467;-65
2023/01/29 00:14:33;;;;;;;19.75;10.88;;;;;;;;;;4989641;28;20042;-67
2023/01/29 00:16:59;;;;;;;18.85;10.10;;;;;;;;;;4988441;28;20089;-67
2023/01/29 00:19:24;;;;;;;19.90;10.85;;;;;;;;;;4986305;28;20027;-67
2023/01/29 00:21:49;;;;;;;21.92;11.38;;;;;;;;;;4989837;28;20033;-66
2023/01/29 00:24:15;;;;;;;22.60;10.98;;;;;;;;;;4989971;28;20034;-67
2023/01/29 00:26:41;;;;;;;23.48;11.40;;;;;;;;;;4984652;28;20113;-67
2023/01/29 00:29:06;;;;;;;18.60;10.07;;;;;;;;;;4989767;28;20022;-67
2023/01/29 00:31:32;;;;;;;19.02;10.18;;;;;;;;;;4989909;28;20022;-67
2023/01/29 00:33:57;;;;;;;21.33;11.27;;;;;;;;;;4989738;28;20049;-67
2023/01/29 00:36:24;;;;;;;19.65;11.15;;;;;;;;;;4989025;28;20026;-66
2023/01/29 00:38:59;;;;;;;19.85;10.65;;;;;;;;;;4988629;28;20027;-67
2023/01/29 00:46:58;;;;;;;22.17;11.77;;;;;;;;;;4983539;28;20407;-66
2023/01/29 00:49:24;;;;;;;26.15;12.70;;;;;;;;;;4989221;28;20109;-66
2023/01/29 00:54:35;;;;;;;20.10;10.90;;;;;;;;;;4992339;28;20088;-66
2023/01/29 00:57:02;;;;;;;17.98;9.32;;;;;;;;;;4992974;28;20018;-66
2023/01/29 00:59:27;;;;;;;16.60;9.48;;;;;;;;;;4992370;28;20058;-67
2023/01/29 01:04:37;;;;;;;20.05;10.30;;;;;;;;;;4990669;28;20128;-67
2023/01/29 01:07:02;;;;;;;19.33;10.02;;;;;;;;;;4991760;28;20445;-66
2023/01/29 01:12:12;;;;;;;17.30;9.15;;;;;;;;;;4993028;28;20093;-67
2023/01/29 01:14:37;;;;;;;16.67;8.60;;;;;;;;;;4992836;28;20323;-66
2023/01/29 01:17:02;;;;;;;16.63;8.98;;;;;;;;;;4990525;28;20034;-66
2023/01/29 01:19:28;;;;;;;15.50;8.70;;;;;;;;;;4992759;28;20037;-66
2023/01/29 01:21:53;;;;;;;17.70;9.82;;;;;;;;;;4991834;28;20073;-66
2023/01/29 01:24:19;;;;;;;19.55;10.73;;;;;;;;;;4992838;28;20026;-66
2023/01/29 01:26:45;;;;;;;20.23;10.07;;;;;;;;;;4991575;28;20381;-67
2023/01/29 01:29:10;;;;;;;13.43;8.20;;;;;;;;;;4992906;28;20035;-66
2023/01/29 01:31:35;;;;;;;14.40;8.57;;;;;;;;;;4992868;28;20045;-66
2023/01/29 01:34:01;;;;;;;14.00;7.97;;;;;;;;;;4992644;28;20395;-66
2023/01/29 01:36:26;;;;;;;16.10;8.63;;;;;;;;;;4989907;28;20037;-66
2023/01/29 01:38:53;;;;;;;14.10;7.72;;;;;;;;;;4992639;28;20030;-66
2023/01/29 01:41:20;;;;;;;14.85;8.45;;;;;;;;;;4992857;28;20061;-66
2023/01/29 01:44:05;;;;;;;13.75;8.10;;;;;;;;;;4992142;28;20053;-66
2023/01/29 01:46:36;;;;;;;15.30;9.23;;;;;;;;;;4991525;28;20029;-67
2023/01/29 01:49:02;;;;;;;16.80;9.15;;;;;;;;;;4992524;28;20113;-66
2023/01/29 01:51:31;;;;;;;15.23;8.65;;;;;;;;;;4991929;28;20519;-67
2023/01/29 01:54:06;;;;;;;14.75;8.68;;;;;;;;;;4991172;28;20034;-67
2023/01/29 01:56:39;;;;;;;16.02;9.07;;;;;;;;;;4990318;28;20084;-67
2023/01/29 01:59:12;;;;;;;17.27;8.90;;;;;;;;;;4992577;28;20030;-67
2023/01/29 02:01:41;;;;;;;16.90;9.23;;;;;;;;;;4990999;28;20054;-67
2023/01/29 02:10:05;;;;;;;16.92;9.25;;;;;;;;;;4992320;28;20061;-67
2023/01/29 02:12:31;;;;;;;15.68;9.20;;;;;;;;;;4993169;28;20408;-67
2023/01/29 02:14:57;;;;;;;16.10;9.40;;;;;;;;;;4991607;28;20041;-66
2023/01/29 02:17:22;;;;;;;17.35;9.05;;;;;;;;;;4991723;28;20039;-66
2023/01/29 02:20:19;;;;;;;15.20;8.30;;;;;;;;;;4991506;28;20476;-67
2023/01/29 02:22:58;;;;;;;15.50;8.43;;;;;;;;;;4991828;28;20081;-67
2023/01/29 02:25:35;;;;;;;16.58;9.02;;;;;;;;;;4991280;28;20050;-67
2023/01/29 02:28:05;;;;;;;14.60;8.20;;;;;;;;;;4988357;28;20510;-67
2023/01/29 02:30:39;;;;;;;16.08;8.98;;;;;;;;;;4992182;28;20503;-67
2023/01/29 02:33:30;;;;;;;15.25;8.27;;;;;;;;;;4987074;28;20030;-67
2023/01/29 02:36:17;;;;;;;13.48;7.85;;;;;;;;;;4991475;28;20105;-67
2023/01/29 02:39:07;;;;;;;14.55;8.45;;;;;;;;;;4991742;28;20029;-67
2023/01/29 02:41:51;;;;;;;;;;;;;;;;;;4992322;28;20113;-67
2023/01/29 02:44:37;;;;;;;17.70;9.00;;;;;;;;;;4991364;28;20024;-67
2023/01/29 02:47:14;;;;;;;15.57;8.32;;;;;;;;;;4986159;28;20030;-67
2023/01/29 02:49:49;;;;;;;15.90;8.77;;;;;;;;;;4990062;28;20242;-68
2023/01/29 02:52:31;;;;;;;15.48;9.15;;;;;;;;;;4991371;28;20026;-67
2023/01/29 02:55:22;;;;;;;17.00;9.63;;;;;;;;;;4990762;28;20065;-67
2023/01/29 02:57:54;;;;;;;17.73;9.38;;;;;;;;;;4988612;28;20113;-67
2023/01/29 03:00:23;;;;;;;19.42;10.02;;;;;;;;;;4991655;28;20030;-67
2023/01/29 03:03:04;;;;;;;18.85;10.93;;;;;;;;;;4986679;28;20062;-67
2023/01/29 03:05:49;;;;;;;22.30;10.88;;;;;;;;;;4990231;28;20034;-68
2023/01/29 03:08:20;;;;;;;21.80;10.65;;;;;;;;;;4988171;28;20031;-66
2023/01/29 03:11:01;;;;;;;20.20;10.73;;;;;;;;;;4991392;28;20057;-67
2023/01/29 03:13:52;;;;;;;24.23;11.27;;;;;;;;;;4991212;28;20120;-66
2023/01/29 03:16:32;;;;;;;22.52;11.15;;;;;;;;;;4989772;28;20511;-66
2023/01/29 03:19:06;;;;;;;20.50;11.48;;;;;;;;;;4989656;28;20542;-67
2023/01/29 03:21:49;;;;;;;26.10;12.50;;;;;;;;;;4990679;28;20169;-66
2023/01/29 03:32:41;;;;;;;15.52;8.48;;;;;;;;;;4990865;28;20124;-67
2023/01/29 03:35:09;;;;;;;16.20;8.90;;;;;;;;;;4990456;28;20480;-67
2023/01/29 03:37:45;;;;;;;14.95;8.35;;;;;;;;;;4990168;28;20097;-67
2023/01/29 03:40:12;;;;;;;14.32;7.75;;;;;;;;;;4990310;28;20034;-66
2023/01/29 03:42:52;;;;;;;13.68;8.48;;;;;;;;;;4990763;28;20038;-67
2023/01/29 03:46:07;;;;;;;14.32;7.70;;;;;;;;;;5002936;28;20396;-67
2023/01/29 03:48:49;;;;;;;15.10;8.27;;;;;;;;;;4973487;28;20038;-67
2023/01/29 03:51:23;;;;;;;16.88;9.10;;;;;;;;;;4990381;28;20034;-67
2023/01/29 03:54:18;;;;;;;13.85;7.88;;;;;;;;;;4985579;28;20026;-67
2023/01/29 03:56:59;;;;;;;13.93;7.90;;;;;;;;;;5004593;28;20054;-67
2023/01/29 03:59:35;;;;;;;13.15;7.60;;;;;;;;;;4988849;28;20499;-67
2023/01/29 04:02:06;;;;;;;15.20;8.20;;;;;;;;;;4985833;28;20112;-67
2023/01/29 04:04:37;;;;;;;16.83;8.85;;;;;;;;;;4990187;28;20136;-67
2023/01/29 04:07:09;;;;;;;13.00;7.88;;;;;;;;;;4989485;28;20069;-66
2023/01/29 04:09:50;;;;;;;15.52;8.50;;;;;;;;;;4989933;28;20018;-66
2023/01/29 04:12:23;;;;;;;16.27;7.70;;;;;;;;;;4990310;28;20073;-67
2023/01/29 04:14:52;;;;;;;15.10;8.30;;;;;;;;;;4987463;28;20135;-66
2023/01/29 04:17:24;;;;;;;14.52;8.20;;;;;;;;;;4986745;28;20136;-66
2023/01/29 04:19:49;;;;;;;16.17;8.05;;;;;;;;;;4989923;28;20026;-67
2023/01/29 04:22:23;;;;;;;14.88;7.82;;;;;;;;;;4990471;28;20037;-67
2023/01/29 04:24:50;;;;;;;16.48;8.55;;;;;;;;;;4988623;28;20030;-67
2023/01/29 04:27:44;;;;;;;17.52;8.68;;;;;;;;;;4985881;28;20198;-67
2023/01/29 04:30:18;;;;;;;16.52;8.52;;;;;;;;;;4989822;28;20085;-67
2023/01/29 04:33:00;;;;;;;15.80;8.07;;;;;;;;;;4993811;28;20488;-66
2023/01/29 04:35:58;;;;;;;16.85;8.07;;;;;;;;;;4993607;28;20064;-66
2023/01/29 04:38:32;;;;;;;16.00;8.50;;;;;;;;;;4954712;28;20196;-66
2023/01/29 04:41:54;;;;;;;18.20;8.23;;;;;;;;;;4992617;28;20046;-66
2023/01/29 04:44:23;;;;;;;16.15;8.48;;;;;;;;;;4969339;28;20050;-66
2023/01/29 04:46:57;;;;;;;19.30;9.48;;;;;;;;;;4975821;28;20026;-66
2023/01/29 04:49:58;;;;;;;17.60;8.88;;;;;;;;;;4984466;28;20042;-66
2023/01/29 04:52:38;;;;;;;14.00;7.93;;;;;;;;;;4996674;28;20050;-66
2023/01/29 04:55:29;;;;;;;;;;;;;;;;;;4994161;28;20085;-66
2023/01/29 04:58:09;;;;;;;16.52;8.85;;;;;;;;;;4988978;28;19917;-66
2023/01/29 05:00:41;;;;;;;17.10;8.93;;;;;;;;;;4992259;28;20504;-66
2023/01/29 05:03:08;;;;;;;16.13;8.25;;;;;;;;;;4993657;28;20074;-66
2023/01/29 05:05:35;;;;;;;15.27;8.05;;;;;;;;;;4993233;28;20034;-66
2023/01/29 05:08:02;;;;;;;15.50;8.20;;;;;;;;;;4992799;28;20033;-66
2023/01/29 05:10:28;;;;;;;17.55;8.73;;;;;;;;;;4993357;28;20037;-66
2023/01/29 05:12:59;;;;;;;19.35;8.73;;;;;;;;;;4993222;28;20022;-66
2023/01/29 05:15:31;;;;;;;16.33;8.77;;;;;;;;;;4987913;28;20394;-66
2023/01/29 05:18:01;;;;;;;18.48;8.82;;;;;;;;;;4992154;28;20026;-66
2023/01/29 05:20:30;;;;;;;14.13;8.00;;;;;;;;;;4993206;28;20022;-66
2023/01/29 05:22:56;;;;;;;15.45;8.07;;;;;;;;;;4993542;28;20030;-66
2023/01/29 05:25:27;;;;;;;15.43;8.05;;;;;;;;;;4992167;28;20038;-66
2023/01/29 05:30:38;;;;;;;15.85;7.95;;;;;;;;;;4992957;28;20154;-67
2023/01/29 05:33:14;;;;;;;17.48;8.73;;;;;;;;;;4993029;28;20037;-67
2023/01/29 05:35:39;;;;;;;16.30;7.57;;;;;;;;;;4992032;28;20026;-67
2023/01/29 05:38:05;;;;;;;17.38;7.35;;;;;;;;;;4991491;28;20026;-67
2023/01/29 05:40:30;;;;;;;15.45;8.18;;;;;;;;;;4992659;28;20030;-67
2023/01/29 05:42:56;;;;;;;13.65;7.10;;;;;;;;;;4993164;28;20022;-67
2023/01/29 05:45:21;;;;;;;16.75;8.00;;;;;;;;;;4989773;28;20118;-67
2023/01/29 05:47:46;;;;;;;19.67;8.73;;;;;;;;;;4989543;28;20440;-67
2023/01/29 05:50:13;;;;;;;15.57;8.43;;;;;;;;;;4993015;28;20064;-67
2023/01/29 05:52:39;;;;;;;12.32;6.85;;;;;;;;;;4992941;28;20118;-67
2023/01/29 05:55:05;;;;;;;17.60;8.27;;;;;;;;;;4991875;28;20563;-67
2023/01/29 05:57:31;;;;;;;13.48;7.18;;;;;;;;;;4991342;28;20488;-67
2023/01/29 05:59:56;;;;;;;16.25;7.68;;;;;;;;;;4990167;28;20029;-67
2023/01/29 06:02:21;;;;;;;18.73;8.43;;;;;;;;;;4991170;28;20480;-67
2023/01/29 06:04:47;;;;;;;17.73;7.90;;;;;;;;;;4989640;28;20069;-67
2023/01/29 06:07:12;;;;;;;16.23;8.25;;;;;;;;;;4991939;28;20026;-68
2023/01/29 06:09:37;;;;;;;13.80;7.18;;;;;;;;;;4992250;28;20081;-68
2023/01/29 06:12:05;;;;;;;12.55;6.35;;;;;;;;;;4992352;28;20076;-68
2023/01/29 06:14:30;;;;;;;14.60;7.05;;;;;;;;;;4989249;28;20057;-68
2023/01/29 06:16:56;;;;;;;16.23;7.40;;;;;;;;;;4991837;28;20053;-68
2023/01/29 06:19:22;;;;;;;10.55;6.25;;;;;;;;;;4992900;28;20034;-68
2023/01/29 06:21:47;;;;;;;11.18;5.63;;;;;;;;;;4992471;28;20480;-68
2023/01/29 06:24:12;;;;;;;11.85;5.97;;;;;;;;;;4991739;28;20503;-68
2023/01/29 06:26:38;;;;;;;12.82;6.35;;;;;;;;;;4991274;28;20144;-68
2023/01/29 06:29:03;;;;;;;11.00;6.32;;;;;;;;;;4992184;28;20037;-68
2023/01/29 06:31:29;;;;;;;10.43;5.90;;;;;;;;;;4990102;28;20144;-68
2023/01/29 06:33:54;;;;;;;10.98;5.85;;;;;;;;;;4991747;28;20046;-68
2023/01/29 06:36:19;;;;;;;11.82;6.65;;;;;;;;;;4991746;28;20037;-68
2023/01/29 06:38:46;;;;;;;13.02;6.60;;;;;;;;;;4992143;28;20100;-68
2023/01/29 06:41:15;;;;;;;12.60;6.53;;;;;;;;;;4991654;28;20443;-68
2023/01/29 06:43:43;;;;;;;13.45;6.72;;;;;;;;;;4990198;28;20105;-68
2023/01/29 06:46:09;;;;;;;16.25;7.90;;;;;;;;;;4991181;28;20092;-68
2023/01/29 06:48:35;;;;;;;15.57;7.45;;;;;;;;;;4991548;28;20487;-69
2023/01/29 06:51:02;;;;;;;14.48;6.85;;;;;;;;;;4991288;28;20064;-69
2023/01/29 06:53:27;;;;;;;13.48;6.53;;;;;;;;;;4991280;28;20030;-69
2023/01/29 06:55:53;;;;;;;13.60;6.68;;;;;;;;;;4991299;28;20092;-69
2023/01/29 06:58:19;;;;;;;11.50;6.40;;;;;;;;;;4990385;28;20380;-69
2023/01/29 07:00:45;;;;;;;14.25;7.47;;;;;;;;;;4991008;28;20026;-69
2023/01/29 07:03:10;;;;;;;13.70;7.28;;;;;;;;;;4991660;28;20030;-68
2023/01/29 07:05:36;;;;;;;16.45;7.78;;;;;;;;;;4990963;28;20037;-69
2023/01/29 07:08:02;;;;;;;12.88;6.55;;;;;;;;;;4990154;28;20034;-68
2023/01/29 07:10:27;;;;;;;17.30;8.25;;;;;;;;;;4991482;28;20064;-68
2023/01/29 07:12:52;;;;;;;18.38;8.30;;;;;;;;;;4991263;28;20037;-69
2023/01/29 07:15:20;;;;;;;19.58;8.60;;;;;;;;;;4991264;28;20034;-69
2023/01/29 07:17:55;;;;;;;16.08;7.80;;;;;;;;;;4989569;28;20058;-68
2023/01/29 07:20:20;;;;;;;18.60;8.70;;;;;;;;;;4989086;28;20034;-69
2023/01/29 07:22:46;;;;;;;16.33;7.93;;;;;;;;;;4988746;28;20021;-68
2023/01/29 07:25:11;;;;;;;18.15;7.53;;;;;;;;;;4990826;28;20546;-68
2023/01/29 07:27:36;;;;;;;15.13;6.97;;;;;;;;;;4989556;28;20026;-69
2023/01/29 07:30:02;;;;;;;18.95;7.50;;;;;;;;;;4988980;28;20428;-68
2023/01/29 07:32:27;;;;;;;22.08;9.02;;;;;;;;;;4988302;28;20030;-68
2023/01/29 07:34:53;;;;;;;18.52;9.00;;;;;;;;;;4990446;28;20030;-68
2023/01/29 07:37:19;;;;;;;23.23;10.48;;;;;;;;;;4986098;28;20047;-68
2023/01/29 07:39:46;;;;;;;29.08;14.68;;;;;;;;;;4990717;28;20093;-68
2023/01/29 07:42:11;;;;;;;25.65;12.82;;;;;;;;;;4991519;28;20031;-69
2023/01/29 07:44:37;;;;;;;26.27;12.00;;;;;;;;;;4989001;28;20026;-68
2023/01/29 07:47:02;;;;;;;22.77;10.63;;;;;;;;;;4989765;28;20089;-68
2023/01/29 07:49:28;;;;;;;27.35;11.50;;;;;;;;;;4990646;28;20026;-68
2023/01/29 07:51:53;;;;;;;27.35;11.88;;;;;;;;;;4989442;28;20119;-68
2023/01/29 07:54:18;;;;;;;26.17;12.40;;;;;;;;;;4990089;28;20038;-69
2023/01/29 07:56:44;;;;;;;19.15;8.80;;;;;;;;;;4989760;28;20527;-68
2023/01/29 07:59:09;;;;;;;17.80;7.80;;;;;;;;;;4990363;28;20462;-69
2023/01/29 08:01:34;;;;;;;16.63;8.07;;;;;;;;;;4990231;28;20483;-69
2023/01/29 08:04:00;;;;;;;17.92;7.90;;;;;;;;;;4990115;28;20037;-69
2023/01/29 08:06:25;;;;;;;17.55;8.32;;;;;;;;;;4987847;28;20397;-68
2023/01/29 08:08:52;;;;;;;17.42;7.55;;;;;;;;;;4990184;28;20030;-69
2023/01/29 08:11:17;;;;;;;17.05;8.15;;;;;;;;;;4988188;28;20030;-69
2023/01/29 08:13:43;;;;;;;16.83;7.57;;;;;;;;;;4987582;28;20113;-68
2023/01/29 08:16:08;;;;;;;18.48;7.80;;;;;;;;;;4987653;28;20030;-69
2023/01/29 08:18:37;;;;;;;33.15;7.53;;;;;;;;;;4989601;28;20056;-70
2023/01/29 08:21:03;;;;;;;19.45;8.35;;;;;;;;;;4990371;28;20034;-70
2023/01/29 08:23:29;;;;;;;22.23;8.85;;;;;;;;;;4988039;28;20045;-70
2023/01/29 08:25:54;;;;;;;22.05;8.95;;;;;;;;;;4986729;28;20037;-69
2023/01/29 08:28:20;;;;;;;22.42;10.40;;;;;;;;;;4989346;28;20053;-69
2023/01/29 08:30:46;;;;;;;20.45;9.77;;;;;;;;;;4990317;28;20093;-70
2023/01/29 08:33:11;;;;;;;19.65;9.40;;;;;;;;;;4989621;28;20544;-69
2023/01/29 08:35:36;;;;;;;26.08;10.88;;;;;;;;;;4982479;28;20388;-69
2023/01/29 08:38:04;;;;;;;24.88;10.25;;;;;;;;;;4988478;28;20031;-70
2023/01/29 08:40:31;;;;;;;34.97;14.35;;;;;;;;;;4990370;28;20034;-70
2023/01/29 08:42:58;;;;;;;31.92;16.05;;;;;;;;;;4989975;28;20033;-69
2023/01/29 08:45:23;;;;;;;24.30;11.15;;;;;;;;;;4989651;28;20042;-69
2023/01/29 08:47:49;;;;;;;37.70;17.27;;;;;;;;;;4989485;28;20073;-70
2023/01/29 08:50:17;;;;;;;30.25;13.85;;;;;;;;;;4988327;28;20041;-69
2023/01/29 08:52:43;;;;;;;21.30;9.57;;;;;;;;;;5001731;28;20030;-69
2023/01/29 08:55:09;;;;;;;17.77;8.98;;;;;;;;;;4988375;28;20038;-69
2023/01/29 08:57:34;;;;;;;45.85;19.02;;;;;;;;;;4989153;28;20034;-69
2023/01/29 09:00:00;;;;;;;83.13;32.10;;;;;;;;;;4989451;28;20034;-68
2023/01/29 09:02:25;;;;;;;33.00;15.18;;;;;;;;;;4986965;28;20022;-68
2023/01/29 09:04:51;;;;;;;30.60;12.77;;;;;;;;;;4985467;28;20092;-70
2023/01/29 09:07:16;;;;;;;35.42;14.73;;;;;;;;;;4988584;28;20031;-69
2023/01/29 09:09:41;;;;;;;294.48;85.28;;;;;;;;;;4988572;28;20030;-71
2023/01/29 09:12:07;;;;;;;96.40;33.25;;;;;;;;;;4987377;28;20369;-70
2023/01/29 09:14:32;;;;;;;62.13;21.85;;;;;;;;;;4989974;28;20054;-70
2023/01/29 09:16:58;;;;;;;92.10;30.40;;;;;;;;;;4992896;28;20034;-70
2023/01/29 09:19:23;;;;;;;63.47;21.35;;;;;;;;;;4991421;28;20030;-71
2023/01/29 09:21:48;;;;;;;29.17;13.50;;;;;;;;;;4992686;28;20412;-71
2023/01/29 09:24:14;;;;;;;20.63;9.98;;;;;;;;;;4992952;28;20026;-71
2023/01/29 09:26:40;;;;;;;25.50;10.70;;;;;;;;;;4991196;28;20025;-70
2023/01/29 09:29:08;;;;;;;26.83;13.05;;;;;;;;;;4993318;28;20026;-71
2023/01/29 09:31:33;;;;;;;26.30;13.20;;;;;;;;;;4989504;28;20540;-71
2023/01/29 09:33:59;;;;;;;22.85;11.75;;;;;;;;;;4992874;28;20114;-70
2023/01/29 09:36:24;;;;;;;24.20;12.02;;;;;;;;;;4992144;28;20495;-71
2023/01/29 09:38:49;;;;;;;24.17;12.07;;;;;;;;;;4992938;28;20062;-71
2023/01/29 09:41:30;;;;;;;24.00;12.38;;;;;;;;;;4990061;28;20480;-70
2023/01/29 09:44:01;;;;;;;17.83;9.35;;;;;;;;;;4988758;28;20050;-69
2023/01/29 09:46:36;;;;;;;16.52;8.75;;;;;;;;;;4987104;28;20036;-69
2023/01/29 09:49:21;;;;;;;17.30;9.20;;;;;;;;;;4991479;28;20419;-71
2023/01/29 09:51:56;;;;;;;14.55;8.20;;;;;;;;;;4990668;28;20064;-70
2023/01/29 09:54:26;;;;;;;16.13;8.35;;;;;;;;;;4990526;28;20391;-70
2023/01/29 09:56:55;;;;;;;14.15;7.50;;;;;;;;;;4987619;28;20058;-69
2023/01/29 09:59:26;;;;;;;11.80;7.40;;;;;;;;;;4990417;28;20081;-69
2023/01/29 10:02:12;;;;;;;14.25;7.60;;;;;;;;;;4990937;28;20018;-70
2023/01/29 10:04:43;;;;;;;12.15;7.03;;;;;;;;;;4992100;28;20022;-70
2023/01/29 10:07:21;;;;;;;18.42;8.07;;;;;;;;;;4990266;28;20061;-70
2023/01/29 10:09:58;;;;;;;13.13;7.32;;;;;;;;;;4991944;28;20461;-69
2023/01/29 10:12:58;;;;;;;17.35;9.27;;;;;;;;;;4992260;28;20029;-69
2023/01/29 10:15:46;;;;;;;15.48;8.00;;;;;;;;;;4991538;28;20023;-69
2023/01/29 10:18:23;;;;;;;21.40;10.38;;;;;;;;;;4988774;28;20419;-70
2023/01/29 10:21:14;;;;;;;19.85;9.35;;;;;;;;;;4989575;28;21074;-69
2023/01/29 10:23:45;;;;;;;17.60;8.82;;;;;;;;;;4991752;28;20139;-69
2023/01/29 10:26:12;;;;;;;13.18;7.45;;;;;;;;;;4988277;28;20050;-68
2023/01/29 10:28:45;;;;;;;16.25;7.68;;;;;;;;;;4985410;28;20097;-68
2023/01/29 10:31:26;;;;;;;15.88;8.38;;;;;;;;;;4989725;28;20550;-68
2023/01/29 10:33:56;;;;;;;14.57;8.73;;;;;;;;;;4988768;28;20057;-68
2023/01/29 10:36:44;;;;;;;15.75;8.55;;;;;;;;;;4985400;28;20026;-67
2023/01/29 10:39:18;;;;;;;13.95;8.38;;;;;;;;;;4982160;28;20054;-67
2023/01/29 10:42:05;;;;;;;17.58;9.40;;;;;;;;;;4985692;28;20054;-67
2023/01/29 10:45:23;;;;;;;12.85;8.05;;;;;;;;;;4989888;28;20022;-66
2023/01/29 10:47:58;;;;;;;17.42;9.40;;;;;;;;;;4970860;28;20643;-66
2023/01/29 10:50:35;;;;;;;17.02;9.82;;;;;;;;;;4990357;28;20113;-66
2023/01/29 10:53:06;;;;;;;17.85;9.27;;;;;;;;;;4990315;28;20392;-65
2023/01/29 10:55:49;;;;;;;16.00;8.23;;;;;;;;;;4990909;28;20476;-65
2023/01/29 10:58:23;;;;;;;13.73;8.10;;;;;;;;;;4987808;28;20484;-65
2023/01/29 11:00:50;;;;;;;15.45;8.00;;;;;;;;;;4990453;28;20033;-65
2023/01/29 11:03:18;;;;;;;14.82;8.52;;;;;;;;;;4987133;28;20081;-65
2023/01/29 11:06:04;;;;;;;13.00;7.95;;;;;;;;;;4989890;28;20029;-65
2023/01/29 11:08:57;;;;;;;14.13;8.00;;;;;;;;;;4993794;28;20046;-65
2023/01/29 11:11:33;;;;;;;12.38;7.50;;;;;;;;;;4987931;28;20499;-64
2023/01/29 11:14:06;;;;;;;10.93;7.45;;;;;;;;;;4990546;28;20496;-65
2023/01/29 11:16:42;;;;;;;20.38;11.27;;;;;;;;;;4989791;28;20113;-63
2023/01/29 11:19:09;;;;;;;13.85;8.43;;;;;;;;;;4984910;28;20034;-62
2023/01/29 11:21:56;;;;;;;14.35;8.50;;;;;;;;;;4989423;28;20029;-62
2023/01/29 11:24:22;;;;;;;12.57;7.85;;;;;;;;;;4986394;28;20034;-62
2023/01/29 11:26:50;;;;;;;13.02;7.47;;;;;;;;;;4990022;28;20018;-62
2023/01/29 11:29:42;;;;;;;14.13;8.18;;;;;;;;;;4990322;28;20509;-62
2023/01/29 11:32:29;;;;;;;12.45;7.70;;;;;;;;;;4985274;28;20057;-62
2023/01/29 11:35:19;;;;;;;26.42;12.43;;;;;;;;;;4984031;28;20133;-63
2023/01/29 11:37:45;;;;;;;22.20;11.63;;;;;;;;;;4986244;28;20026;-62
2023/01/29 11:40:35;;;;;;;16.52;9.70;;;;;;;;;;4990162;28;20034;-62
2023/01/29 11:43:19;;;;;;;18.95;9.50;;;;;;;;;;4989127;28;20061;-62
2023/01/29 11:45:46;;;;;;;19.35;9.50;;;;;;;;;;4988826;28;20026;-62
2023/01/29 11:48:18;;;;;;;15.65;8.80;;;;;;;;;;4988150;28;20022;-62
2023/01/29 11:50:50;;;;;;;14.38;7.60;;;;;;;;;;4988733;28;20050;-62
2023/01/29 11:53:32;;;;;;;18.75;9.07;;;;;;;;;;4986057;28;20034;-61
2023/01/29 11:55:58;;;;;;;18.13;8.85;;;;;;;;;;4989536;28;20084;-62
2023/01/29 11:58:29;;;;;;;17.20;9.18;;;;;;;;;;4987320;28;20108;-61
2023/01/29 12:00:57;;;;;;;17.83;9.35;;;;;;;;;;4989026;28;20120;-61
2023/01/29 12:03:44;;;;;;;12.95;8.05;;;;;;;;;;4987860;28;20041;-61
2023/01/29 12:06:18;;;;;;;13.32;8.13;;;;;;;;;;4988086;28;20114;-61
2023/01/29 12:08:55;;;;;;;13.90;7.40;;;;;;;;;;4989518;28;20022;-61
2023/01/29 12:11:29;;;;;;;14.18;8.38;;;;;;;;;;4987947;28;20061;-61
2023/01/29 12:13:57;;;;;;;14.48;9.23;;;;;;;;;;4986615;28;20029;-61
2023/01/29 12:16:27;;;;;;;11.73;7.97;;;;;;;;;;4988053;28;20030;-61
2023/01/29 12:19:26;;;;;;;12.23;7.65;;;;;;;;;;4988424;28;20041;-60
2023/01/29 12:21:59;;;;;;;15.68;7.90;;;;;;;;;;4988900;28;20041;-60
2023/01/29 12:24:36;;;;;;;12.95;8.10;;;;;;;;;;4988261;28;20081;-61
2023/01/29 12:27:18;;;;;;;12.52;7.25;;;;;;;;;;4983501;28;20081;-60
2023/01/29 12:30:06;;;;;;;19.48;11.73;;;;;;;;;;4989012;28;20648;-60
2023/01/29 12:32:48;;;;;;;20.50;11.75;;;;;;;;;;4988335;28;20026;-60
2023/01/29 12:35:28;;;;;;;18.75;10.60;;;;;;;;;;4986989;28;20726;-60
2023/01/29 12:38:06;;;;;;;16.40;8.93;;;;;;;;;;4983922;28;20030;-61
2023/01/29 12:40:41;;;;;;;13.40;8.57;;;;;;;;;;4988441;28;20030;-61
2023/01/29 12:43:21;;;;;;;17.95;8.63;;;;;;;;;;4990073;28;20503;-61
2023/01/29 12:45:51;;;;;;;17.65;10.07;;;;;;;;;;4989620;28;20033;-61
2023/01/29 12:48:25;;;;;;;15.82;10.30;;;;;;;;;;4990328;28;20100;-61
2023/01/29 12:50:52;;;;;;;12.60;8.45;;;;;;;;;;4993455;28;21775;-60
2023/01/29 12:53:59;;;;;;;15.32;8.95;;;;;;;;;;4993244;28;20066;-61
2023/01/29 12:56:26;;;;;;;13.05;8.15;;;;;;;;;;4983750;28;20050;-60
2023/01/29 12:58:55;;;;;;;21.02;10.75;;;;;;;;;;4992600;28;20037;-61
2023/01/29 13:01:54;;;;;;;15.88;9.80;;;;;;;;;;4992669;28;20034;-61
2023/01/29 13:04:51;;;;;;;18.35;9.52;;;;;;;;;;4988973;28;20506;-61
2023/01/29 13:07:24;;;;;;;17.88;9.52;;;;;;;;;;4986831;28;20037;-61
2023/01/29 13:09:56;;;;;;;16.75;9.60;;;;;;;;;;4990567;28;20108;-60
2023/01/29 13:12:23;;;;;;;15.82;9.55;;;;;;;;;;4992646;28;20018;-61
2023/01/29 13:14:57;;;;;;;18.67;11.25;;;;;;;;;;4989976;28;20023;-62
2023/01/29 13:17:45;;;;;;;18.30;10.45;;;;;;;;;;4986901;28;20031;-60
2023/01/29 13:20:29;;;;;;;13.85;8.75;;;;;;;;;;4987768;28;20035;-61
2023/01/29 13:23:02;;;;;;;15.23;9.88;;;;;;;;;;4985511;28;20079;-60
2023/01/29 13:25:27;;;;;;;17.70;10.30;;;;;;;;;;4992118;28;20033;-60
2023/01/29 13:27:53;;;;;;;16.92;9.98;;;;;;;;;;4991455;28;20018;-62
2023/01/29 13:30:24;;;;;;;15.85;8.63;;;;;;;;;;4992828;28;20026;-62
2023/01/29 13:32:53;;;;;;;14.98;8.63;;;;;;;;;;4990271;28;20096;-63
2023/01/29 13:35:22;;;;;;;18.13;9.10;;;;;;;;;;4991822;28;20034;-61
2023/01/29 13:37:50;;;;;;;14.90;8.50;;;;;;;;;;4990841;28;20112;-62
2023/01/29 13:40:28;;;;;;;13.90;8.75;;;;;;;;;;4989146;28;20034;-59
2023/01/29 13:42:55;;;;;;;16.00;8.85;;;;;;;;;;4991856;28;20030;-58
2023/01/29 13:45:32;;;;;;;18.75;9.90;;;;;;;;;;4989630;28;20173;-61
2023/01/29 13:48:11;;;;;;;18.58;10.48;;;;;;;;;;4990843;28;20109;-59
2023/01/29 13:50:40;;;;;;;16.23;9.20;;;;;;;;;;4989046;28;20023;-61
2023/01/29 13:53:08;;;;;;;19.52;9.40;;;;;;;;;;4989431;28;20049;-60
2023/01/29 13:55:38;;;;;;;15.13;8.30;;;;;;;;;;4985071;28;20058;-58
2023/01/29 13:58:22;;;;;;;17.20;10.45;;;;;;;;;;4985386;28;20057;-59
2023/01/29 14:00:48;;;;;;;17.48;9.75;;;;;;;;;;4989370;28;20050;-59
2023/01/29 14:03:14;;;;;;;19.42;10.40;;;;;;;;;;4989266;28;20026;-62
2023/01/29 14:05:45;;;;;;;19.50;9.43;;;;;;;;;;4989379;28;20026;-62
2023/01/29 14:08:13;;;;;;;15.00;9.00;;;;;;;;;;4986649;28;20447;-61
2023/01/29 14:10:39;;;;;;;16.55;9.60;;;;;;;;;;4991271;28;20097;-61
2023/01/29 14:13:16;;;;;;;17.50;10.10;;;;;;;;;;4990325;28;20116;-59
2023/01/29 14:15:44;;;;;;;18.02;10.25;;;;;;;;;;4990554;28;20042;-59
2023/01/29 14:18:15;;;;;;;15.88;9.45;;;;;;;;;;4989909;28;20041;-61
2023/01/29 14:20:46;;;;;;;14.98;9.00;;;;;;;;;;4988133;28;20049;-59
2023/01/29 14:23:34;;;;;;;13.77;8.85;;;;;;;;;;4990544;28;20030;-59
2023/01/29 14:26:03;;;;;;;19.70;11.10;;;;;;;;;;4989511;28;20069;-61
2023/01/29 14:28:31;;;;;;;15.40;9.30;;;;;;;;;;4989843;28;20773;-60
2023/01/29 14:30:57;;;;;;;16.20;9.10;;;;;;;;;;5005968;28;20272;-60
2023/01/29 14:33:38;;;;;;;14.13;8.07;;;;;;;;;;4987362;28;20115;-62
2023/01/29 14:36:14;;;;;;;17.15;9.02;;;;;;;;;;4987203;28;20033;-62
2023/01/29 14:38:46;;;;;;;15.85;9.27;;;;;;;;;;4990106;28;20085;-60
2023/01/29 14:41:25;;;;;;;15.05;9.75;;;;;;;;;;4991047;28;20030;-59
2023/01/29 14:43:51;;;;;;;19.00;9.90;;;;;;;;;;4986721;28;20045;-59
2023/01/29 14:46:43;;;;;;;15.18;8.98;;;;;;;;;;4990758;28;20034;-59
2023/01/29 14:49:08;;;;;;;15.30;8.95;;;;;;;;;;4991494;28;20156;-61
2023/01/29 14:51:39;;;;;;;15.68;8.80;;;;;;;;;;4995191;28;20017;-58
2023/01/29 14:54:32;;;;;;;15.32;9.13;;;;;;;;;;4990850;28;20117;-59
2023/01/29 14:57:03;;;;;;;13.45;8.05;;;;;;;;;;4986343;28;21577;-60
2023/01/29 14:59:36;;;;;;;14.60;8.05;;;;;;;;;;4989901;28;20121;-60
2023/01/29 15:02:25;;;;;;;14.93;8.48;;;;;;;;;;4993808;28;20018;-61
2023/01/29 15:04:56;;;;;;;14.37;8.30;;;;;;;;;;4993564;28;20110;-62
2023/01/29 15:07:24;;;;;;;16.20;9.50;;;;;;;;;;4988221;28;20269;-61
2023/01/29 15:09:56;;;;;;;16.27;9.13;;;;;;;;;;4986684;28;20109;-61
2023/01/29 15:12:24;;;;;;;15.55;9.20;;;;;;;;;;4992056;28;20465;-61
2023/01/29 15:14:58;;;;;;;15.07;9.45;;;;;;;;;;4998254;28;20034;-61
2023/01/29 15:17:29;;;;;;;14.52;8.65;;;;;;;;;;4993425;28;20029;-61
2023/01/29 15:19:56;;;;;;;18.63;8.75;;;;;;;;;;4991272;28;20036;-61
2023/01/29 15:22:24;;;;;;;19.63;8.52;;;;;;;;;;4991552;28;20037;-61
2023/01/29 15:25:12;;;;;;;17.02;9.23;;;;;;;;;;4991095;28;20521;-61
2023/01/29 15:27:41;;;;;;;14.80;8.07;;;;;;;;;;4989495;28;20024;-62
2023/01/29 15:30:07;;;;;;;15.68;10.20;;;;;;;;;;4990015;28;20029;-61